sensor_id;sensor_type;location;lat;lon;timestamp;pressure;altitude;pressure_sealevel;temperature;humidity
69796;BME280;57073;45.650;9.612;2022-07-23T00:00:05;99144.06;;;30.60;32.94
69796;BME280;57073;45.650;9.612;2022-07-23T00:02:05;99157.25;;;30.51;33.52
69796;BME280;57073;45.650;9.612;2022-07-23T00:04:06;99147.88;;;30.39;33.72
69796;BME280;57073;45.650;9.612;2022-07-23T00:06:07;99153.97;;;30.33;33.73
69796;BME280;57073;45.650;9.612;2022-07-23T00:08:08;99168.19;;;30.31;33.88
69796;BME280;57073;45.650;9.612;2022-07-23T00:10:09;99165.91;;;30.21;34.03
69796;BME280;57073;45.650;9.612;2022-07-23T00:12:10;99168.44;;;30.26;33.99
69796;BME280;57073;45.650;9.612;2022-07-23T00:14:10;99159.31;;;30.26;33.85
69796;BME280;57073;45.650;9.612;2022-07-23T00:16:10;99162.56;;;30.28;33.76
69796;BME280;57073;45.650;9.612;2022-07-23T00:18:11;99153.97;;;30.33;33.90
69796;BME280;57073;45.650;9.612;2022-07-23T00:20:11;99149.59;;;30.32;33.72
69796;BME280;57073;45.650;9.612;2022-07-23T00:22:12;99150.09;;;30.34;33.49
69796;BME280;57073;45.650;9.612;2022-07-23T00:24:13;99147.31;;;30.34;33.80
69796;BME280;57073;45.650;9.612;2022-07-23T00:26:13;99139.81;;;30.34;33.51
69796;BME280;57073;45.650;9.612;2022-07-23T00:28:14;99135.09;;;30.35;33.27
69796;BME280;57073;45.650;9.612;2022-07-23T00:30:14;99133.47;;;30.34;33.97
69796;BME280;57073;45.650;9.612;2022-07-23T00:32:15;99123.75;;;30.40;33.79
69796;BME280;57073;45.650;9.612;2022-07-23T00:34:16;99119.13;;;30.44;33.96
69796;BME280;57073;45.650;9.612;2022-07-23T00:36:16;99112.31;;;30.42;33.53
69796;BME280;57073;45.650;9.612;2022-07-23T00:38:16;99105.78;;;30.34;33.95
69796;BME280;57073;45.650;9.612;2022-07-23T00:40:17;99098.78;;;30.24;33.87
69796;BME280;57073;45.650;9.612;2022-07-23T00:42:17;99096.34;;;30.35;33.84
69796;BME280;57073;45.650;9.612;2022-07-23T00:44:23;99090.16;;;30.42;33.70
69796;BME280;57073;45.650;9.612;2022-07-23T00:46:23;99088.84;;;30.23;34.39
69796;BME280;57073;45.650;9.612;2022-07-23T00:48:25;99086.53;;;30.25;33.91
69796;BME280;57073;45.650;9.612;2022-07-23T00:50:25;99078.19;;;30.37;33.65
69796;BME280;57073;45.650;9.612;2022-07-23T00:52:26;99091.78;;;30.43;33.54
69796;BME280;57073;45.650;9.612;2022-07-23T00:54:27;99097.31;;;30.43;33.59
69796;BME280;57073;45.650;9.612;2022-07-23T00:56:27;99110.63;;;30.37;33.83
69796;BME280;57073;45.650;9.612;2022-07-23T00:58:28;99108.44;;;30.30;34.03
69796;BME280;57073;45.650;9.612;2022-07-23T01:00:28;99126.25;;;30.17;34.02
69796;BME280;57073;45.650;9.612;2022-07-23T01:02:29;99126.97;;;30.14;34.53
69796;BME280;57073;45.650;9.612;2022-07-23T01:04:29;99132.84;;;30.12;33.86
69796;BME280;57073;45.650;9.612;2022-07-23T01:06:34;99138.19;;;30.05;34.68
69796;BME280;57073;45.650;9.612;2022-07-23T01:08:35;99143.72;;;30.05;35.69
69796;BME280;57073;45.650;9.612;2022-07-23T01:10:35;99143.00;;;30.08;34.58
69796;BME280;57073;45.650;9.612;2022-07-23T01:12:36;99150.75;;;30.03;34.01
69796;BME280;57073;45.650;9.612;2022-07-23T01:14:36;99153.78;;;29.97;35.29
69796;BME280;57073;45.650;9.612;2022-07-23T01:16:37;99154.22;;;29.99;35.43
69796;BME280;57073;45.650;9.612;2022-07-23T01:18:37;99152.47;;;30.07;34.70
69796;BME280;57073;45.650;9.612;2022-07-23T01:20:37;99146.94;;;30.07;34.48
69796;BME280;57073;45.650;9.612;2022-07-23T01:22:38;99139.50;;;29.95;34.80
69796;BME280;57073;45.650;9.612;2022-07-23T01:24:38;99136.38;;;29.97;35.70
69796;BME280;57073;45.650;9.612;2022-07-23T01:26:41;99133.34;;;30.02;35.50
69796;BME280;57073;45.650;9.612;2022-07-23T01:28:42;99123.53;;;30.05;35.63
69796;BME280;57073;45.650;9.612;2022-07-23T01:30:42;99119.50;;;30.02;35.18
69796;BME280;57073;45.650;9.612;2022-07-23T01:32:43;99119.88;;;30.00;35.61
69796;BME280;57073;45.650;9.612;2022-07-23T01:34:43;99119.25;;;30.07;35.82
69796;BME280;57073;45.650;9.612;2022-07-23T01:36:44;99114.06;;;30.06;35.79
69796;BME280;57073;45.650;9.612;2022-07-23T01:38:45;99126.31;;;30.05;34.98
69796;BME280;57073;45.650;9.612;2022-07-23T01:40:45;99123.78;;;29.99;35.52
69796;BME280;57073;45.650;9.612;2022-07-23T01:42:46;99135.91;;;29.95;35.95
69796;BME280;57073;45.650;9.612;2022-07-23T01:44:46;99134.41;;;29.97;35.41
69796;BME280;57073;45.650;9.612;2022-07-23T01:46:47;99129.13;;;29.92;35.62
69796;BME280;57073;45.650;9.612;2022-07-23T01:48:47;99128.66;;;29.90;36.24
69796;BME280;57073;45.650;9.612;2022-07-23T01:50:47;99133.75;;;29.88;36.27
69796;BME280;57073;45.650;9.612;2022-07-23T01:52:48;99127.28;;;29.84;36.25
69796;BME280;57073;45.650;9.612;2022-07-23T01:54:48;99132.81;;;29.84;36.36
69796;BME280;57073;45.650;9.612;2022-07-23T01:56:49;99138.34;;;29.84;36.30
69796;BME280;57073;45.650;9.612;2022-07-23T01:58:49;99132.38;;;29.82;36.36
69796;BME280;57073;45.650;9.612;2022-07-23T02:00:49;99140.66;;;29.82;36.09
69796;BME280;57073;45.650;9.612;2022-07-23T02:02:50;99135.13;;;29.82;36.28
69796;BME280;57073;45.650;9.612;2022-07-23T02:04:50;99140.66;;;29.82;36.08
69796;BME280;57073;45.650;9.612;2022-07-23T02:06:51;99149.06;;;29.86;35.83
69796;BME280;57073;45.650;9.612;2022-07-23T02:08:52;99145.84;;;29.71;36.60
69796;BME280;57073;45.650;9.612;2022-07-23T02:10:52;99144.94;;;29.79;35.79
69796;BME280;57073;45.650;9.612;2022-07-23T02:12:53;99142.06;;;29.63;35.24
69796;BME280;57073;45.650;9.612;2022-07-23T02:14:53;99137.38;;;29.52;35.54
69796;BME280;57073;45.650;9.612;2022-07-23T02:16:54;99140.94;;;29.40;35.90
69796;BME280;57073;45.650;9.612;2022-07-23T02:18:55;99144.88;;;29.39;35.25
69796;BME280;57073;45.650;9.612;2022-07-23T02:20:55;99145.22;;;29.37;35.19
69796;BME280;57073;45.650;9.612;2022-07-23T02:22:55;99151.31;;;29.31;35.37
69796;BME280;57073;45.650;9.612;2022-07-23T02:24:56;99145.22;;;29.25;35.65
69796;BME280;57073;45.650;9.612;2022-07-23T02:26:56;99143.25;;;29.25;35.38
69796;BME280;57073;45.650;9.612;2022-07-23T02:28:56;99139.69;;;29.25;35.00
69796;BME280;57073;45.650;9.612;2022-07-23T02:30:57;99140.50;;;29.25;34.91
69796;BME280;57073;45.650;9.612;2022-07-23T02:32:57;99144.38;;;29.37;34.70
69796;BME280;57073;45.650;9.612;2022-07-23T02:34:58;99141.63;;;29.37;34.53
69796;BME280;57073;45.650;9.612;2022-07-23T02:36:58;99138.88;;;29.37;33.97
69796;BME280;57073;45.650;9.612;2022-07-23T02:38:59;99133.34;;;29.37;34.36
69796;BME280;57073;45.650;9.612;2022-07-23T02:40:59;99137.84;;;29.41;34.24
69796;BME280;57073;45.650;9.612;2022-07-23T02:42:59;99140.03;;;29.36;34.57
69796;BME280;57073;45.650;9.612;2022-07-23T02:45:00;99139.34;;;29.39;34.46
69796;BME280;57073;45.650;9.612;2022-07-23T02:47:00;99137.16;;;29.44;34.19
69796;BME280;57073;45.650;9.612;2022-07-23T02:49:01;99135.75;;;29.38;34.45
69796;BME280;57073;45.650;9.612;2022-07-23T02:51:01;99136.53;;;29.51;34.50
69796;BME280;57073;45.650;9.612;2022-07-23T02:53:02;99126.41;;;29.55;34.14
69796;BME280;57073;45.650;9.612;2022-07-23T02:55:02;99127.34;;;29.47;33.99
69796;BME280;57073;45.650;9.612;2022-07-23T02:57:03;99120.78;;;29.52;33.98
69796;BME280;57073;45.650;9.612;2022-07-23T02:59:04;99127.34;;;29.59;33.98
69796;BME280;57073;45.650;9.612;2022-07-23T03:01:05;99125.81;;;29.62;33.82
69796;BME280;57073;45.650;9.612;2022-07-23T03:03:05;99126.84;;;29.70;33.40
69796;BME280;57073;45.650;9.612;2022-07-23T03:05:07;99118.19;;;29.71;33.05
69796;BME280;57073;45.650;9.612;2022-07-23T03:07:07;99120.28;;;29.74;32.70
69796;BME280;57073;45.650;9.612;2022-07-23T03:09:08;99113.63;;;29.75;32.57
69796;BME280;57073;45.650;9.612;2022-07-23T03:11:09;99109.34;;;29.78;32.64
69796;BME280;57073;45.650;9.612;2022-07-23T03:13:11;99106.91;;;29.76;32.59
69796;BME280;57073;45.650;9.612;2022-07-23T03:15:11;99108.19;;;29.79;32.23
69796;BME280;57073;45.650;9.612;2022-07-23T03:17:11;99111.84;;;29.83;32.29
69796;BME280;57073;45.650;9.612;2022-07-23T03:19:12;99107.47;;;29.82;32.16
69796;BME280;57073;45.650;9.612;2022-07-23T03:21:12;99116.03;;;29.77;32.36
69796;BME280;57073;45.650;9.612;2022-07-23T03:23:13;99114.88;;;29.78;32.38
69796;BME280;57073;45.650;9.612;2022-07-23T03:25:13;99112.56;;;29.80;32.08
69796;BME280;57073;45.650;9.612;2022-07-23T03:27:14;99106.66;;;29.81;32.48
69796;BME280;57073;45.650;9.612;2022-07-23T03:29:14;99113.81;;;29.83;32.41
69796;BME280;57073;45.650;9.612;2022-07-23T03:31:14;99116.22;;;29.84;32.15
69796;BME280;57073;45.650;9.612;2022-07-23T03:33:16;99111.97;;;29.87;32.45
69796;BME280;57073;45.650;9.612;2022-07-23T03:35:17;99110.00;;;29.87;32.06
69796;BME280;57073;45.650;9.612;2022-07-23T03:37:18;99100.56;;;29.88;31.90
69796;BME280;57073;45.650;9.612;2022-07-23T03:39:19;99110.44;;;29.89;32.43
69796;BME280;57073;45.650;9.612;2022-07-23T03:41:20;99105.34;;;29.91;32.01
69796;BME280;57073;45.650;9.612;2022-07-23T03:43:20;99106.09;;;29.88;31.91
69796;BME280;57073;45.650;9.612;2022-07-23T03:45:21;99100.91;;;29.87;32.35
69796;BME280;57073;45.650;9.612;2022-07-23T03:47:21;99104.47;;;29.87;32.33
69796;BME280;57073;45.650;9.612;2022-07-23T03:49:22;99105.25;;;29.88;32.19
69796;BME280;57073;45.650;9.612;2022-07-23T03:51:22;99104.13;;;29.89;31.93
69796;BME280;57073;45.650;9.612;2022-07-23T03:53:22;99102.03;;;29.86;32.26
69796;BME280;57073;45.650;9.612;2022-07-23T03:55:23;99110.69;;;29.84;32.83
69796;BME280;57073;45.650;9.612;2022-07-23T03:57:23;99111.41;;;29.81;32.69
69796;BME280;57073;45.650;9.612;2022-07-23T03:59:23;99104.59;;;29.78;32.79
69796;BME280;57073;45.650;9.612;2022-07-23T04:01:24;99118.53;;;29.82;32.44
69796;BME280;57073;45.650;9.612;2022-07-23T04:03:24;99124.06;;;29.82;33.04
69796;BME280;57073;45.650;9.612;2022-07-23T04:05:25;99128.00;;;29.81;32.84
69796;BME280;57073;45.650;9.612;2022-07-23T04:07:25;99128.00;;;29.81;32.29
69796;BME280;57073;45.650;9.612;2022-07-23T04:09:25;99130.31;;;29.79;32.24
69796;BME280;57073;45.650;9.612;2022-07-23T04:11:26;99133.78;;;29.76;32.12
69796;BME280;57073;45.650;9.612;2022-07-23T04:13:26;99132.50;;;29.73;32.27
69796;BME280;57073;45.650;9.612;2022-07-23T04:15:27;99134.94;;;29.62;32.91
69796;BME280;57073;45.650;9.612;2022-07-23T04:17:27;99132.28;;;29.66;33.03
69796;BME280;57073;45.650;9.612;2022-07-23T04:19:28;99139.06;;;29.69;33.20
69796;BME280;57073;45.650;9.612;2022-07-23T04:21:30;99135.84;;;29.67;33.22
69796;BME280;57073;45.650;9.612;2022-07-23T04:23:30;99134.13;;;29.62;33.05
69796;BME280;57073;45.650;9.612;2022-07-23T04:25:31;99142.19;;;29.55;32.59
69796;BME280;57073;45.650;9.612;2022-07-23T04:27:31;99140.94;;;29.52;32.34
69796;BME280;57073;45.650;9.612;2022-07-23T04:29:33;99149.13;;;29.49;33.23
69796;BME280;57073;45.650;9.612;2022-07-23T04:31:33;99144.16;;;29.42;33.81
69796;BME280;57073;45.650;9.612;2022-07-23T04:33:34;99142.34;;;29.34;32.95
69796;BME280;57073;45.650;9.612;2022-07-23T04:35:35;99149.34;;;29.31;33.25
69796;BME280;57073;45.650;9.612;2022-07-23T04:37:36;99143.03;;;29.31;33.64
69796;BME280;57073;45.650;9.612;2022-07-23T04:39:36;99140.59;;;29.29;34.15
69796;BME280;57073;45.650;9.612;2022-07-23T04:41:36;99148.78;;;29.38;33.91
69796;BME280;57073;45.650;9.612;2022-07-23T04:43:37;99136.22;;;29.40;33.04
69796;BME280;57073;45.650;9.612;2022-07-23T04:45:37;99146.91;;;29.54;33.29
69796;BME280;57073;45.650;9.612;2022-07-23T04:47:38;99144.38;;;29.61;33.44
69796;BME280;57073;45.650;9.612;2022-07-23T04:49:38;99145.84;;;29.71;32.89
69796;BME280;57073;45.650;9.612;2022-07-23T04:51:38;99142.97;;;29.80;32.90
69796;BME280;57073;45.650;9.612;2022-07-23T04:53:39;99138.63;;;29.79;32.60
69796;BME280;57073;45.650;9.612;2022-07-23T04:55:39;99128.00;;;29.81;33.02
69796;BME280;57073;45.650;9.612;2022-07-23T04:57:40;99122.88;;;29.95;32.28
69796;BME280;57073;45.650;9.612;2022-07-23T04:59:40;99127.50;;;30.19;32.80
69796;BME280;57073;45.650;9.612;2022-07-23T05:01:40;99120.19;;;30.39;32.29
69796;BME280;57073;45.650;9.612;2022-07-23T05:03:42;99121.50;;;30.46;32.20
69796;BME280;57073;45.650;9.612;2022-07-23T05:05:42;99135.84;;;30.64;32.29
69796;BME280;57073;45.650;9.612;2022-07-23T05:07:42;99130.22;;;30.76;31.87
69796;BME280;57073;45.650;9.612;2022-07-23T05:09:43;99134.44;;;30.86;32.00
69796;BME280;57073;45.650;9.612;2022-07-23T05:11:43;99127.63;;;30.67;31.86
69796;BME280;57073;45.650;9.612;2022-07-23T05:13:44;99126.03;;;30.98;31.40
69796;BME280;57073;45.650;9.612;2022-07-23T05:15:44;99126.97;;;31.02;30.94
69796;BME280;57073;45.650;9.612;2022-07-23T05:17:45;99119.28;;;30.95;31.52
69796;BME280;57073;45.650;9.612;2022-07-23T05:19:45;99121.75;;;31.17;31.28
69796;BME280;57073;45.650;9.612;2022-07-23T05:21:45;99122.53;;;31.33;30.82
69796;BME280;57073;45.650;9.612;2022-07-23T05:23:46;99130.38;;;31.31;31.52
69796;BME280;57073;45.650;9.612;2022-07-23T05:25:46;99131.53;;;31.46;30.59
69796;BME280;57073;45.650;9.612;2022-07-23T05:27:47;99135.03;;;31.59;30.65
69796;BME280;57073;45.650;9.612;2022-07-23T05:29:47;99135.13;;;31.46;30.64
69796;BME280;57073;45.650;9.612;2022-07-23T05:31:47;99139.34;;;31.40;31.03
69796;BME280;57073;45.650;9.612;2022-07-23T05:33:48;99137.38;;;31.57;30.67
69796;BME280;57073;45.650;9.612;2022-07-23T05:35:48;99137.22;;;31.49;30.88
69796;BME280;57073;45.650;9.612;2022-07-23T05:37:49;99146.56;;;31.45;30.89
69796;BME280;57073;45.650;9.612;2022-07-23T05:39:49;99146.69;;;31.48;30.74
69796;BME280;57073;45.650;9.612;2022-07-23T05:41:49;99145.34;;;31.42;31.15
69796;BME280;57073;45.650;9.612;2022-07-23T05:43:50;99148.63;;;31.64;30.48
69796;BME280;57073;45.650;9.612;2022-07-23T05:45:50;99155.50;;;31.89;30.11
69796;BME280;57073;45.650;9.612;2022-07-23T05:47:51;99164.19;;;32.04;29.76
69796;BME280;57073;45.650;9.612;2022-07-23T05:49:51;99166.53;;;31.86;30.15
69796;BME280;57073;45.650;9.612;2022-07-23T05:51:51;99167.50;;;31.94;30.15
69796;BME280;57073;45.650;9.612;2022-07-23T05:53:52;99182.59;;;31.96;30.45
69796;BME280;57073;45.650;9.612;2022-07-23T05:55:52;99178.03;;;32.23;29.73
69796;BME280;57073;45.650;9.612;2022-07-23T05:57:53;99190.63;;;32.37;29.74
69796;BME280;57073;45.650;9.612;2022-07-23T05:59:53;99193.59;;;32.47;29.36
69796;BME280;57073;45.650;9.612;2022-07-23T06:01:53;99184.16;;;32.52;28.95
69796;BME280;57073;45.650;9.612;2022-07-23T06:03:54;99185.13;;;32.40;29.23
69796;BME280;57073;45.650;9.612;2022-07-23T06:05:54;99185.28;;;32.08;29.26
69796;BME280;57073;45.650;9.612;2022-07-23T06:07:55;99194.03;;;32.10;29.83
69796;BME280;57073;45.650;9.612;2022-07-23T06:09:55;99192.53;;;31.97;29.54
69796;BME280;57073;45.650;9.612;2022-07-23T06:11:55;99200.72;;;31.90;30.12
69796;BME280;57073;45.650;9.612;2022-07-23T06:13:56;99205.75;;;31.84;29.86
69796;BME280;57073;45.650;9.612;2022-07-23T06:15:56;99206.78;;;31.96;29.30
69796;BME280;57073;45.650;9.612;2022-07-23T06:17:57;99214.94;;;31.88;29.44
69796;BME280;57073;45.650;9.612;2022-07-23T06:19:57;99216.50;;;31.86;29.69
69796;BME280;57073;45.650;9.612;2022-07-23T06:21:57;99214.22;;;32.07;29.72
69796;BME280;57073;45.650;9.612;2022-07-23T06:23:58;99221.00;;;32.10;30.29
69796;BME280;57073;45.650;9.612;2022-07-23T06:25:58;99212.38;;;32.15;29.75
69796;BME280;57073;45.650;9.612;2022-07-23T06:27:58;99215.59;;;32.17;29.11
69796;BME280;57073;45.650;9.612;2022-07-23T06:30:00;99217.44;;;32.09;28.98
69796;BME280;57073;45.650;9.612;2022-07-23T06:32:00;99217.59;;;32.17;29.69
69796;BME280;57073;45.650;9.612;2022-07-23T06:34:01;99221.59;;;32.39;29.93
69796;BME280;57073;45.650;9.612;2022-07-23T06:36:01;99219.91;;;32.34;28.92
69796;BME280;57073;45.650;9.612;2022-07-23T06:38:01;99222.31;;;32.36;29.63
69796;BME280;57073;45.650;9.612;2022-07-23T06:40:02;99217.66;;;32.40;28.52
69796;BME280;57073;45.650;9.612;2022-07-23T06:42:03;99213.84;;;32.48;28.65
69796;BME280;57073;45.650;9.612;2022-07-23T06:44:04;99217.19;;;32.57;28.26
69796;BME280;57073;45.650;9.612;2022-07-23T06:46:04;99215.91;;;32.51;27.93
69796;BME280;57073;45.650;9.612;2022-07-23T06:48:05;99215.41;;;32.45;28.01
69796;BME280;57073;45.650;9.612;2022-07-23T06:50:06;99216.69;;;32.52;28.00
69796;BME280;57073;45.650;9.612;2022-07-23T06:52:07;99217.22;;;32.77;27.97
69796;BME280;57073;45.650;9.612;2022-07-23T06:54:07;99211.78;;;32.84;27.58
69796;BME280;57073;45.650;9.612;2022-07-23T06:56:08;99221.84;;;32.92;27.74
69796;BME280;57073;45.650;9.612;2022-07-23T06:58:08;99211.75;;;33.03;27.65
69796;BME280;57073;45.650;9.612;2022-07-23T07:00:10;99208.13;;;33.03;27.69
69796;BME280;57073;45.650;9.612;2022-07-23T07:02:11;99207.94;;;32.92;27.67
69796;BME280;57073;45.650;9.612;2022-07-23T07:04:11;99204.91;;;33.20;26.40
69796;BME280;57073;45.650;9.612;2022-07-23T07:06:11;99204.09;;;33.20;27.05
69796;BME280;57073;45.650;9.612;2022-07-23T07:08:12;99211.19;;;33.17;27.39
69796;BME280;57073;45.650;9.612;2022-07-23T07:10:12;99214.16;;;33.28;27.43
69796;BME280;57073;45.650;9.612;2022-07-23T07:12:12;99215.09;;;33.13;26.57
69796;BME280;57073;45.650;9.612;2022-07-23T07:14:13;99215.06;;;32.90;27.04
69796;BME280;57073;45.650;9.612;2022-07-23T07:16:13;99217.31;;;32.61;27.73
69796;BME280;57073;45.650;9.612;2022-07-23T07:18:13;99227.50;;;32.57;27.44
69796;BME280;57073;45.650;9.612;2022-07-23T07:20:14;99221.53;;;32.55;27.57
69796;BME280;57073;45.650;9.612;2022-07-23T07:22:14;99225.47;;;32.73;27.51
69796;BME280;57073;45.650;9.612;2022-07-23T07:24:15;99230.50;;;32.87;26.97
69796;BME280;57073;45.650;9.612;2022-07-23T07:26:15;99216.84;;;33.01;27.31
69796;BME280;57073;45.650;9.612;2022-07-23T07:28:16;99227.44;;;33.15;26.86
69796;BME280;57073;45.650;9.612;2022-07-23T07:30:16;99224.97;;;33.33;27.01
69796;BME280;57073;45.650;9.612;2022-07-23T07:32:16;99227.63;;;33.49;27.40
69796;BME280;57073;45.650;9.612;2022-07-23T07:34:17;99229.63;;;33.75;26.47
69796;BME280;57073;45.650;9.612;2022-07-23T07:36:17;99224.41;;;34.00;26.41
69796;BME280;57073;45.650;9.612;2022-07-23T07:38:18;99217.16;;;33.92;25.96
69796;BME280;57073;45.650;9.612;2022-07-23T07:40:19;63708.63;;;-147.61;100.00
69796;BME280;57073;45.650;9.612;2022-07-23T07:42:20;63708.63;;;-147.61;100.00
69796;BME280;57073;45.650;9.612;2022-07-23T07:44:20;63708.63;;;-147.61;100.00
69796;BME280;57073;45.650;9.612;2022-07-23T07:46:21;63708.63;;;-147.61;100.00
69796;BME280;57073;45.650;9.612;2022-07-23T07:48:24;99217.16;;;33.92;25.96
69796;BME280;57073;45.650;9.612;2022-07-23T07:50:24;63708.63;;;-147.61;100.00
69796;BME280;57073;45.650;9.612;2022-07-23T07:52:25;99232.06;;;34.34;25.88
69796;BME280;57073;45.650;9.612;2022-07-23T07:54:25;99232.50;;;34.40;25.44
69796;BME280;57073;45.650;9.612;2022-07-23T07:56:26;99234.31;;;34.59;26.49
69796;BME280;57073;45.650;9.612;2022-07-23T07:58:26;99232.94;;;34.75;25.98
69796;BME280;57073;45.650;9.612;2022-07-23T08:00:26;99236.75;;;34.98;25.87
69796;BME280;57073;45.650;9.612;2022-07-23T08:02:27;99229.94;;;34.95;25.73
69796;BME280;57073;45.650;9.612;2022-07-23T08:04:27;99229.94;;;34.95;25.73
69796;BME280;57073;45.650;9.612;2022-07-23T08:06:28;99238.31;;;34.95;25.18
69796;BME280;57073;45.650;9.612;2022-07-23T08:08:28;99237.66;;;35.09;25.65
69796;BME280;57073;45.650;9.612;2022-07-23T08:10:29;99224.91;;;35.11;25.84
69796;BME280;57073;45.650;9.612;2022-07-23T08:12:41;99238.84;;;35.11;25.55
69796;BME280;57073;45.650;9.612;2022-07-23T08:14:41;99239.47;;;35.31;25.46
69796;BME280;57073;45.650;9.612;2022-07-23T08:16:42;99237.78;;;35.20;25.65
69796;BME280;57073;45.650;9.612;2022-07-23T08:18:42;99231.25;;;35.49;26.31
69796;BME280;57073;45.650;9.612;2022-07-23T08:20:42;99225.34;;;35.62;25.92
69796;BME280;57073;45.650;9.612;2022-07-23T08:22:44;99227.94;;;35.37;26.02
69796;BME280;57073;45.650;9.612;2022-07-23T08:24:45;99238.47;;;35.54;25.55
69796;BME280;57073;45.650;9.612;2022-07-23T08:26:45;99245.31;;;35.67;25.86
69796;BME280;57073;45.650;9.612;2022-07-23T08:28:47;99241.00;;;35.70;25.51
69796;BME280;57073;45.650;9.612;2022-07-23T08:30:47;99242.50;;;35.64;25.10
69796;BME280;57073;45.650;9.612;2022-07-23T08:35:02;99242.31;;;35.91;24.96
69796;BME280;57073;45.650;9.612;2022-07-23T08:37:02;99241.97;;;35.96;25.26
69796;BME280;57073;45.650;9.612;2022-07-23T08:39:03;99242.75;;;35.96;24.79
69796;BME280;57073;45.650;9.612;2022-07-23T08:41:04;99233.59;;;35.99;24.45
69796;BME280;57073;45.650;9.612;2022-07-23T08:43:09;99236.13;;;36.19;24.32
69796;BME280;57073;45.650;9.612;2022-07-23T08:45:11;99229.19;;;35.98;23.93
69796;BME280;57073;45.650;9.612;2022-07-23T08:47:12;99232.13;;;36.23;24.83
69796;BME280;57073;45.650;9.612;2022-07-23T08:49:13;99225.69;;;36.16;24.44
69796;BME280;57073;45.650;9.612;2022-07-23T08:51:14;99230.53;;;36.19;24.29
69796;BME280;57073;45.650;9.612;2022-07-23T08:53:16;99222.88;;;36.08;24.29
69796;BME280;57073;45.650;9.612;2022-07-23T08:55:18;99228.53;;;36.19;24.09
69796;BME280;57073;45.650;9.612;2022-07-23T08:57:19;99225.59;;;35.98;23.83
69796;BME280;57073;45.650;9.612;2022-07-23T08:59:19;99231.59;;;36.00;24.25
69796;BME280;57073;45.650;9.612;2022-07-23T09:01:20;99228.03;;;36.03;24.85
69796;BME280;57073;45.650;9.612;2022-07-23T09:03:31;99236.84;;;36.08;24.58
69796;BME280;57073;45.650;9.612;2022-07-23T09:05:32;99229.22;;;36.02;24.23
69796;BME280;57073;45.650;9.612;2022-07-23T09:07:32;99228.84;;;36.07;24.43
69796;BME280;57073;45.650;9.612;2022-07-23T09:09:32;99223.41;;;36.32;24.72
69796;BME280;57073;45.650;9.612;2022-07-23T09:11:34;99220.09;;;36.12;24.13
69796;BME280;57073;45.650;9.612;2022-07-23T09:13:53;99214.59;;;36.26;24.24
69796;BME280;57073;45.650;9.612;2022-07-23T09:15:56;99221.28;;;36.11;24.15
69796;BME280;57073;45.650;9.612;2022-07-23T09:17:57;99226.22;;;36.39;24.39
69796;BME280;57073;45.650;9.612;2022-07-23T09:20:11;99218.63;;;36.36;23.97
69796;BME280;57073;45.650;9.612;2022-07-23T09:24:22;99216.25;;;36.49;23.68
69796;BME280;57073;45.650;9.612;2022-07-23T09:28:30;99215.91;;;36.65;23.59
69796;BME280;57073;45.650;9.612;2022-07-23T09:30:31;99214.69;;;36.55;23.17
69796;BME280;57073;45.650;9.612;2022-07-23T09:32:32;99213.44;;;36.38;23.44
69796;BME280;57073;45.650;9.612;2022-07-23T09:34:34;99205.03;;;36.38;23.44
69796;BME280;57073;45.650;9.612;2022-07-23T09:36:38;99219.41;;;36.33;23.33
69796;BME280;57073;45.650;9.612;2022-07-23T09:38:50;99212.19;;;36.21;23.27
69796;BME280;57073;45.650;9.612;2022-07-23T09:41:08;99216.59;;;36.30;23.35
69796;BME280;57073;45.650;9.612;2022-07-23T09:43:08;99216.63;;;36.40;22.97
69796;BME280;57073;45.650;9.612;2022-07-23T09:45:11;99207.44;;;36.40;22.73
69796;BME280;57073;45.650;9.612;2022-07-23T09:47:12;99210.97;;;36.26;22.36
69796;BME280;57073;45.650;9.612;2022-07-23T09:49:14;99208.25;;;36.44;23.43
69796;BME280;57073;45.650;9.612;2022-07-23T09:51:15;99204.28;;;36.49;23.24
69796;BME280;57073;45.650;9.612;2022-07-23T09:53:25;99200.38;;;36.71;23.51
69796;BME280;57073;45.650;9.612;2022-07-23T09:55:32;99202.00;;;36.79;23.30
69796;BME280;57073;45.650;9.612;2022-07-23T09:57:37;99190.81;;;36.90;23.15
69796;BME280;57073;45.650;9.612;2022-07-23T09:59:41;99200.03;;;37.05;23.29
69796;BME280;57073;45.650;9.612;2022-07-23T10:01:42;99199.63;;;37.14;23.64
69796;BME280;57073;45.650;9.612;2022-07-23T10:03:43;99200.81;;;37.13;23.31
69796;BME280;57073;45.650;9.612;2022-07-23T10:05:45;99192.81;;;37.11;23.27
69796;BME280;57073;45.650;9.612;2022-07-23T10:07:45;99197.25;;;37.16;23.51
69796;BME280;57073;45.650;9.612;2022-07-23T10:09:47;99201.25;;;37.18;23.09
69796;BME280;57073;45.650;9.612;2022-07-23T10:11:48;99204.47;;;37.17;23.01
69796;BME280;57073;45.650;9.612;2022-07-23T10:13:50;99200.81;;;36.95;22.24
69796;BME280;57073;45.650;9.612;2022-07-23T10:15:51;99189.94;;;36.54;22.44
69796;BME280;57073;45.650;9.612;2022-07-23T10:17:52;99195.47;;;36.32;22.83
69796;BME280;57073;45.650;9.612;2022-07-23T10:19:52;99196.28;;;36.40;22.88
69796;BME280;57073;45.650;9.612;2022-07-23T10:21:58;99194.69;;;36.42;23.58
69796;BME280;57073;45.650;9.612;2022-07-23T10:33:20;99190.03;;;36.86;23.58
69796;BME280;57073;45.650;9.612;2022-07-23T10:35:44;99182.84;;;36.96;22.46
69796;BME280;57073;45.650;9.612;2022-07-23T10:37:54;99179.63;;;36.83;22.77
69796;BME280;57073;45.650;9.612;2022-07-23T10:40:10;99184.03;;;37.06;22.95
69796;BME280;57073;45.650;9.612;2022-07-23T10:42:15;99179.66;;;37.08;22.60
69796;BME280;57073;45.650;9.612;2022-07-23T10:44:20;99171.66;;;37.03;22.41
69796;BME280;57073;45.650;9.612;2022-07-23T10:46:25;99177.25;;;37.07;23.02
69796;BME280;57073;45.650;9.612;2022-07-23T10:48:31;99173.25;;;37.18;22.68
69796;BME280;57073;45.650;9.612;2022-07-23T10:50:32;99171.69;;;37.25;22.72
69796;BME280;57073;45.650;9.612;2022-07-23T10:52:35;99166.09;;;37.21;22.25
69796;BME280;57073;45.650;9.612;2022-07-23T10:54:35;99165.69;;;37.33;23.17
69796;BME280;57073;45.650;9.612;2022-07-23T10:59:03;99158.09;;;37.16;22.69